Orangeburg, New York
Current Conditions -  °F | °C
As of 7:56 AM on Saturday 25 Oct 2014 (Local Time) from KHPN Reporting Station
Clear Clear  
Wind Chill: 42°   Ceiling: Unl
Heat Index: 46°   Visibility: 10mi
Dew Point: 38°   Wind: 7mph
Humidity: 73%   Direction: 300°WNW
Pressure: 29.84"   Gusts: NA
Location:  41.05°N, 73.95°W
Report Text: KHPN 251156Z 30006KT 10SM CLR 08/03 A2984 RMK AO2 SLP109 T00780033 10083 20061 51002
Loading
Personal Weather Stations






























Interactive Weather Map
Tropical Storm Tracking
New forecast layout! Learn more

10-Day Weather Forecast

Advertisements
Track Severe Weather on mobile